sensor_id;sensor_type;location;lat;lon;timestamp;P1;durP1;ratioP1;P2;durP2;ratioP2
52740;SDS011;38634;52.138;9.912;2022-08-25T00:01:55;10.43;;;2.78;;
52740;SDS011;38634;52.138;9.912;2022-08-25T00:04:42;10.25;;;2.97;;
52740;SDS011;38634;52.138;9.912;2022-08-25T00:07:27;7.95;;;2.80;;
52740;SDS011;38634;52.138;9.912;2022-08-25T00:10:12;9.38;;;2.90;;
52740;SDS011;38634;52.138;9.912;2022-08-25T00:12:57;8.90;;;2.85;;
52740;SDS011;38634;52.138;9.912;2022-08-25T00:15:41;8.52;;;2.42;;
52740;SDS011;38634;52.138;9.912;2022-08-25T00:18:26;9.15;;;3.50;;
52740;SDS011;38634;52.138;9.912;2022-08-25T00:21:11;7.82;;;2.90;;
52740;SDS011;38634;52.138;9.912;2022-08-25T00:23:57;9.10;;;3.08;;
52740;SDS011;38634;52.138;9.912;2022-08-25T00:26:46;8.27;;;2.63;;
52740;SDS011;38634;52.138;9.912;2022-08-25T00:29:32;9.70;;;2.95;;
52740;SDS011;38634;52.138;9.912;2022-08-25T00:32:20;10.00;;;3.15;;
52740;SDS011;38634;52.138;9.912;2022-08-25T00:35:06;7.72;;;2.42;;
52740;SDS011;38634;52.138;9.912;2022-08-25T00:37:51;7.32;;;2.60;;
52740;SDS011;38634;52.138;9.912;2022-08-25T00:40:36;6.38;;;2.33;;
52740;SDS011;38634;52.138;9.912;2022-08-25T00:43:23;5.18;;;1.95;;
52740;SDS011;38634;52.138;9.912;2022-08-25T00:46:14;5.18;;;2.00;;
52740;SDS011;38634;52.138;9.912;2022-08-25T00:49:04;5.55;;;2.10;;
52740;SDS011;38634;52.138;9.912;2022-08-25T00:51:58;10.48;;;3.05;;
52740;SDS011;38634;52.138;9.912;2022-08-25T00:54:52;5.47;;;1.98;;
52740;SDS011;38634;52.138;9.912;2022-08-25T00:57:49;5.75;;;2.08;;
52740;SDS011;38634;52.138;9.912;2022-08-25T01:01:03;6.05;;;2.33;;
52740;SDS011;38634;52.138;9.912;2022-08-25T01:03:48;4.63;;;1.55;;
52740;SDS011;38634;52.138;9.912;2022-08-25T01:06:35;4.80;;;1.85;;
52740;SDS011;38634;52.138;9.912;2022-08-25T01:09:21;8.27;;;2.72;;
52740;SDS011;38634;52.138;9.912;2022-08-25T01:12:05;7.93;;;2.80;;
52740;SDS011;38634;52.138;9.912;2022-08-25T01:14:50;7.65;;;2.88;;
52740;SDS011;38634;52.138;9.912;2022-08-25T01:17:45;1.67;;;1.40;;
52740;SDS011;38634;52.138;9.912;2022-08-25T01:20:34;3.40;;;1.58;;
52740;SDS011;38634;52.138;9.912;2022-08-25T01:23:19;3.72;;;1.63;;
52740;SDS011;38634;52.138;9.912;2022-08-25T01:26:13;6.53;;;2.10;;
52740;SDS011;38634;52.138;9.912;2022-08-25T01:29:03;8.15;;;2.35;;
52740;SDS011;38634;52.138;9.912;2022-08-25T01:32:09;7.88;;;2.60;;
52740;SDS011;38634;52.138;9.912;2022-08-25T01:34:56;10.75;;;3.25;;
52740;SDS011;38634;52.138;9.912;2022-08-25T01:37:40;10.65;;;2.95;;
52740;SDS011;38634;52.138;9.912;2022-08-25T01:40:25;8.82;;;2.53;;
52740;SDS011;38634;52.138;9.912;2022-08-25T01:45:57;11.10;;;3.65;;
52740;SDS011;38634;52.138;9.912;2022-08-25T01:48:42;8.05;;;2.60;;
52740;SDS011;38634;52.138;9.912;2022-08-25T01:51:27;9.07;;;2.97;;
52740;SDS011;38634;52.138;9.912;2022-08-25T01:54:22;8.50;;;3.00;;
52740;SDS011;38634;52.138;9.912;2022-08-25T01:57:07;9.82;;;3.17;;
52740;SDS011;38634;52.138;9.912;2022-08-25T01:59:51;9.65;;;2.78;;
52740;SDS011;38634;52.138;9.912;2022-08-25T02:02:36;8.50;;;2.80;;
52740;SDS011;38634;52.138;9.912;2022-08-25T02:05:22;7.70;;;2.55;;
52740;SDS011;38634;52.138;9.912;2022-08-25T02:08:06;8.50;;;2.78;;
52740;SDS011;38634;52.138;9.912;2022-08-25T02:10:52;7.15;;;2.55;;
52740;SDS011;38634;52.138;9.912;2022-08-25T02:13:38;9.32;;;2.80;;
52740;SDS011;38634;52.138;9.912;2022-08-25T02:16:25;10.20;;;3.30;;
52740;SDS011;38634;52.138;9.912;2022-08-25T02:19:14;8.35;;;2.63;;
52740;SDS011;38634;52.138;9.912;2022-08-25T08:53:38;7.57;;;2.83;;
52740;SDS011;38634;52.138;9.912;2022-08-25T08:56:43;11.60;;;3.65;;
52740;SDS011;38634;52.138;9.912;2022-08-25T08:59:35;9.05;;;3.65;;
52740;SDS011;38634;52.138;9.912;2022-08-25T09:05:16;3.22;;;2.35;;
52740;SDS011;38634;52.138;9.912;2022-08-25T09:08:04;7.00;;;3.45;;
52740;SDS011;38634;52.138;9.912;2022-08-25T09:27:13;7.70;;;3.67;;
52740;SDS011;38634;52.138;9.912;2022-08-25T09:30:06;6.97;;;3.03;;
52740;SDS011;38634;52.138;9.912;2022-08-25T09:32:53;8.75;;;3.53;;
52740;SDS011;38634;52.138;9.912;2022-08-25T09:35:47;10.30;;;4.72;;
52740;SDS011;38634;52.138;9.912;2022-08-25T09:38:36;9.65;;;2.80;;
52740;SDS011;38634;52.138;9.912;2022-08-25T09:41:41;10.10;;;3.00;;
52740;SDS011;38634;52.138;9.912;2022-08-25T09:44:37;6.38;;;2.78;;
52740;SDS011;38634;52.138;9.912;2022-08-25T09:47:27;9.32;;;3.40;;
52740;SDS011;38634;52.138;9.912;2022-08-25T09:50:16;8.57;;;2.83;;
52740;SDS011;38634;52.138;9.912;2022-08-25T09:53:10;8.57;;;3.30;;
52740;SDS011;38634;52.138;9.912;2022-08-25T09:56:01;8.70;;;3.17;;
52740;SDS011;38634;52.138;9.912;2022-08-25T09:58:50;11.05;;;4.15;;
52740;SDS011;38634;52.138;9.912;2022-08-25T10:01:35;7.68;;;2.72;;
52740;SDS011;38634;52.138;9.912;2022-08-25T10:04:42;9.32;;;3.13;;
52740;SDS011;38634;52.138;9.912;2022-08-25T10:07:33;6.78;;;2.10;;
52740;SDS011;38634;52.138;9.912;2022-08-25T10:10:27;10.57;;;3.35;;
52740;SDS011;38634;52.138;9.912;2022-08-25T10:13:18;11.48;;;3.47;;
52740;SDS011;38634;52.138;9.912;2022-08-25T10:19:05;7.60;;;2.88;;
52740;SDS011;38634;52.138;9.912;2022-08-25T10:22:08;10.02;;;3.45;;
52740;SDS011;38634;52.138;9.912;2022-08-25T10:25:22;9.73;;;3.60;;
52740;SDS011;38634;52.138;9.912;2022-08-25T10:28:21;9.55;;;3.00;;
52740;SDS011;38634;52.138;9.912;2022-08-25T10:31:36;6.97;;;2.63;;
52740;SDS011;38634;52.138;9.912;2022-08-25T10:34:48;10.25;;;3.72;;
52740;SDS011;38634;52.138;9.912;2022-08-25T10:44:06;9.90;;;4.20;;
52740;SDS011;38634;52.138;9.912;2022-08-25T10:47:31;8.63;;;3.03;;
52740;SDS011;38634;52.138;9.912;2022-08-25T10:50:39;7.28;;;2.63;;
52740;SDS011;38634;52.138;9.912;2022-08-25T10:53:59;6.57;;;2.75;;
52740;SDS011;38634;52.138;9.912;2022-08-25T10:57:01;6.47;;;3.03;;
52740;SDS011;38634;52.138;9.912;2022-08-25T11:00:29;7.68;;;2.85;;
52740;SDS011;38634;52.138;9.912;2022-08-25T11:03:30;6.60;;;2.95;;
52740;SDS011;38634;52.138;9.912;2022-08-25T11:06:22;8.23;;;2.80;;
52740;SDS011;38634;52.138;9.912;2022-08-25T11:09:29;9.15;;;3.58;;
52740;SDS011;38634;52.138;9.912;2022-08-25T11:15:34;8.52;;;2.67;;
52740;SDS011;38634;52.138;9.912;2022-08-25T11:18:26;6.57;;;2.75;;
52740;SDS011;38634;52.138;9.912;2022-08-25T11:21:15;8.15;;;3.00;;
52740;SDS011;38634;52.138;9.912;2022-08-25T11:24:09;9.18;;;3.33;;
52740;SDS011;38634;52.138;9.912;2022-08-25T11:27:30;7.50;;;2.10;;
52740;SDS011;38634;52.138;9.912;2022-08-25T11:30:33;7.38;;;3.00;;
52740;SDS011;38634;52.138;9.912;2022-08-25T11:33:20;6.07;;;2.28;;
52740;SDS011;38634;52.138;9.912;2022-08-25T11:48:46;8.40;;;2.88;;
52740;SDS011;38634;52.138;9.912;2022-08-25T12:04:39;32.15;;;14.30;;
52740;SDS011;38634;52.138;9.912;2022-08-25T12:07:26;13.20;;;7.78;;
52740;SDS011;38634;52.138;9.912;2022-08-25T12:10:59;18.48;;;4.97;;
52740;SDS011;38634;52.138;9.912;2022-08-25T12:13:49;7.93;;;2.72;;
52740;SDS011;38634;52.138;9.912;2022-08-25T12:24:54;12.75;;;4.25;;
52740;SDS011;38634;52.138;9.912;2022-08-25T12:28:14;25.83;;;7.25;;
52740;SDS011;38634;52.138;9.912;2022-08-25T12:41:05;20.90;;;7.25;;
52740;SDS011;38634;52.138;9.912;2022-08-25T12:44:14;9.70;;;3.58;;
52740;SDS011;38634;52.138;9.912;2022-08-25T12:50:24;10.48;;;4.35;;
52740;SDS011;38634;52.138;9.912;2022-08-25T12:53:39;5.32;;;1.98;;
52740;SDS011;38634;52.138;9.912;2022-08-25T12:56:30;7.95;;;3.33;;
52740;SDS011;38634;52.138;9.912;2022-08-25T12:59:21;16.38;;;5.68;;
52740;SDS011;38634;52.138;9.912;2022-08-25T13:15:59;13.95;;;4.90;;
52740;SDS011;38634;52.138;9.912;2022-08-25T13:18:51;18.75;;;6.63;;
52740;SDS011;38634;52.138;9.912;2022-08-25T13:21:41;19.58;;;6.18;;
52740;SDS011;38634;52.138;9.912;2022-08-25T13:24:28;9.35;;;3.10;;
52740;SDS011;38634;52.138;9.912;2022-08-25T13:27:24;19.45;;;5.90;;
52740;SDS011;38634;52.138;9.912;2022-08-25T13:30:40;14.70;;;5.20;;
52740;SDS011;38634;52.138;9.912;2022-08-25T13:33:48;14.48;;;5.03;;
52740;SDS011;38634;52.138;9.912;2022-08-25T13:36:48;17.02;;;5.05;;
52740;SDS011;38634;52.138;9.912;2022-08-25T13:43:10;15.70;;;4.88;;
52740;SDS011;38634;52.138;9.912;2022-08-25T13:46:00;19.67;;;6.43;;
52740;SDS011;38634;52.138;9.912;2022-08-25T13:49:00;10.55;;;4.38;;
52740;SDS011;38634;52.138;9.912;2022-08-25T13:51:51;16.08;;;4.88;;
52740;SDS011;38634;52.138;9.912;2022-08-25T13:54:40;9.13;;;3.10;;
52740;SDS011;38634;52.138;9.912;2022-08-25T13:57:27;19.63;;;6.00;;
52740;SDS011;38634;52.138;9.912;2022-08-25T14:00:28;13.13;;;4.28;;
52740;SDS011;38634;52.138;9.912;2022-08-25T14:03:36;25.38;;;7.15;;
52740;SDS011;38634;52.138;9.912;2022-08-25T14:06:25;23.65;;;6.85;;
52740;SDS011;38634;52.138;9.912;2022-08-25T14:09:12;23.65;;;6.57;;
52740;SDS011;38634;52.138;9.912;2022-08-25T14:16:32;12.90;;;4.82;;
52740;SDS011;38634;52.138;9.912;2022-08-25T14:23:34;12.73;;;4.10;;
52740;SDS011;38634;52.138;9.912;2022-08-25T14:26:20;8.45;;;3.22;;
52740;SDS011;38634;52.138;9.912;2022-08-25T14:29:06;16.02;;;5.78;;
52740;SDS011;38634;52.138;9.912;2022-08-25T14:31:50;18.35;;;6.65;;
52740;SDS011;38634;52.138;9.912;2022-08-25T14:34:36;14.45;;;6.25;;
52740;SDS011;38634;52.138;9.912;2022-08-25T14:37:22;8.65;;;3.53;;
52740;SDS011;38634;52.138;9.912;2022-08-25T14:40:13;12.85;;;5.30;;
52740;SDS011;38634;52.138;9.912;2022-08-25T14:43:02;15.75;;;5.72;;
52740;SDS011;38634;52.138;9.912;2022-08-25T14:45:52;5.22;;;2.45;;
52740;SDS011;38634;52.138;9.912;2022-08-25T14:48:41;8.27;;;2.95;;
52740;SDS011;38634;52.138;9.912;2022-08-25T14:51:28;20.88;;;8.38;;
52740;SDS011;38634;52.138;9.912;2022-08-25T14:54:15;7.13;;;2.63;;
52740;SDS011;38634;52.138;9.912;2022-08-25T14:57:01;10.50;;;3.95;;
52740;SDS011;38634;52.138;9.912;2022-08-25T14:59:46;7.07;;;3.40;;
52740;SDS011;38634;52.138;9.912;2022-08-25T15:02:31;18.15;;;6.75;;
52740;SDS011;38634;52.138;9.912;2022-08-25T15:05:23;9.50;;;4.30;;
52740;SDS011;38634;52.138;9.912;2022-08-25T15:08:09;10.63;;;4.28;;
52740;SDS011;38634;52.138;9.912;2022-08-25T15:11:13;7.72;;;3.40;;
52740;SDS011;38634;52.138;9.912;2022-08-25T15:13:58;8.32;;;3.30;;
52740;SDS011;38634;52.138;9.912;2022-08-25T15:16:46;15.45;;;5.45;;
52740;SDS011;38634;52.138;9.912;2022-08-25T15:19:33;13.93;;;5.05;;
52740;SDS011;38634;52.138;9.912;2022-08-25T15:22:18;6.53;;;3.10;;
52740;SDS011;38634;52.138;9.912;2022-08-25T15:25:16;10.45;;;4.25;;
52740;SDS011;38634;52.138;9.912;2022-08-25T15:28:05;17.70;;;6.15;;
52740;SDS011;38634;52.138;9.912;2022-08-25T15:30:51;5.63;;;2.40;;
52740;SDS011;38634;52.138;9.912;2022-08-25T15:33:42;10.40;;;4.00;;
52740;SDS011;38634;52.138;9.912;2022-08-25T15:38:27;2.30;;;1.63;;
52740;SDS011;38634;52.138;9.912;2022-08-25T15:41:12;4.15;;;2.15;;
52740;SDS011;38634;52.138;9.912;2022-08-25T15:43:57;6.78;;;2.65;;
52740;SDS011;38634;52.138;9.912;2022-08-25T15:46:55;9.50;;;3.83;;
52740;SDS011;38634;52.138;9.912;2022-08-25T15:49:49;5.25;;;2.63;;
52740;SDS011;38634;52.138;9.912;2022-08-25T15:52:54;5.35;;;2.83;;
52740;SDS011;38634;52.138;9.912;2022-08-25T15:55:39;5.75;;;2.47;;
52740;SDS011;38634;52.138;9.912;2022-08-25T15:58:24;12.07;;;4.80;;
52740;SDS011;38634;52.138;9.912;2022-08-25T16:01:13;15.60;;;5.93;;
52740;SDS011;38634;52.138;9.912;2022-08-25T16:03:59;10.48;;;4.20;;
52740;SDS011;38634;52.138;9.912;2022-08-25T16:06:44;7.22;;;3.15;;
52740;SDS011;38634;52.138;9.912;2022-08-25T16:09:30;19.23;;;6.18;;
52740;SDS011;38634;52.138;9.912;2022-08-25T16:12:14;32.30;;;9.15;;
52740;SDS011;38634;52.138;9.912;2022-08-25T16:14:59;28.77;;;7.85;;
52740;SDS011;38634;52.138;9.912;2022-08-25T16:17:43;11.10;;;4.00;;
52740;SDS011;38634;52.138;9.912;2022-08-25T16:20:29;12.30;;;5.05;;
52740;SDS011;38634;52.138;9.912;2022-08-25T16:23:20;7.78;;;2.38;;
52740;SDS011;38634;52.138;9.912;2022-08-25T16:26:05;7.60;;;2.40;;
52740;SDS011;38634;52.138;9.912;2022-08-25T16:28:52;7.72;;;2.33;;
52740;SDS011;38634;52.138;9.912;2022-08-25T16:31:37;8.45;;;2.65;;
52740;SDS011;38634;52.138;9.912;2022-08-25T16:34:22;5.57;;;1.58;;
52740;SDS011;38634;52.138;9.912;2022-08-25T16:37:07;27.83;;;7.20;;
52740;SDS011;38634;52.138;9.912;2022-08-25T16:39:52;20.77;;;6.85;;
52740;SDS011;38634;52.138;9.912;2022-08-25T16:42:39;12.90;;;5.28;;
52740;SDS011;38634;52.138;9.912;2022-08-25T16:45:25;23.27;;;6.47;;
52740;SDS011;38634;52.138;9.912;2022-08-25T16:48:09;27.40;;;7.10;;
52740;SDS011;38634;52.138;9.912;2022-08-25T16:50:54;27.75;;;7.32;;
52740;SDS011;38634;52.138;9.912;2022-08-25T16:53:40;12.13;;;3.80;;
52740;SDS011;38634;52.138;9.912;2022-08-25T16:56:44;25.27;;;7.18;;
52740;SDS011;38634;52.138;9.912;2022-08-25T16:59:29;10.02;;;3.75;;
52740;SDS011;38634;52.138;9.912;2022-08-25T17:02:13;13.18;;;4.35;;
52740;SDS011;38634;52.138;9.912;2022-08-25T17:04:58;21.33;;;5.65;;
52740;SDS011;38634;52.138;9.912;2022-08-25T17:07:43;29.85;;;7.85;;
52740;SDS011;38634;52.138;9.912;2022-08-25T17:10:47;20.38;;;5.78;;
52740;SDS011;38634;52.138;9.912;2022-08-25T17:13:36;34.60;;;8.90;;
52740;SDS011;38634;52.138;9.912;2022-08-25T17:16:25;11.80;;;4.18;;
52740;SDS011;38634;52.138;9.912;2022-08-25T17:19:13;13.73;;;3.33;;
52740;SDS011;38634;52.138;9.912;2022-08-25T17:21:58;12.43;;;3.40;;
52740;SDS011;38634;52.138;9.912;2022-08-25T17:24:43;7.82;;;3.70;;
52740;SDS011;38634;52.138;9.912;2022-08-25T17:27:28;7.00;;;2.72;;
52740;SDS011;38634;52.138;9.912;2022-08-25T17:30:13;7.05;;;2.53;;
52740;SDS011;38634;52.138;9.912;2022-08-25T17:32:58;4.22;;;2.10;;
52740;SDS011;38634;52.138;9.912;2022-08-25T17:35:45;3.25;;;2.05;;
52740;SDS011;38634;52.138;9.912;2022-08-25T17:38:32;6.18;;;2.97;;
52740;SDS011;38634;52.138;9.912;2022-08-25T17:41:17;4.40;;;2.90;;
52740;SDS011;38634;52.138;9.912;2022-08-25T17:44:03;4.65;;;2.83;;
52740;SDS011;38634;52.138;9.912;2022-08-25T17:46:47;4.28;;;2.17;;
52740;SDS011;38634;52.138;9.912;2022-08-25T17:49:32;5.07;;;2.85;;
52740;SDS011;38634;52.138;9.912;2022-08-25T17:52:17;5.28;;;3.03;;
52740;SDS011;38634;52.138;9.912;2022-08-25T17:55:01;4.95;;;2.50;;
52740;SDS011;38634;52.138;9.912;2022-08-25T17:57:47;5.75;;;3.53;;
52740;SDS011;38634;52.138;9.912;2022-08-25T18:00:34;5.65;;;2.67;;
52740;SDS011;38634;52.138;9.912;2022-08-25T18:03:20;7.68;;;2.90;;
52740;SDS011;38634;52.138;9.912;2022-08-25T18:06:05;4.32;;;2.22;;
52740;SDS011;38634;52.138;9.912;2022-08-25T18:08:49;3.90;;;2.65;;
52740;SDS011;38634;52.138;9.912;2022-08-25T18:11:34;4.63;;;2.50;;
52740;SDS011;38634;52.138;9.912;2022-08-25T18:14:19;5.05;;;2.92;;
52740;SDS011;38634;52.138;9.912;2022-08-25T18:17:04;5.68;;;2.70;;
52740;SDS011;38634;52.138;9.912;2022-08-25T18:19:48;6.00;;;3.28;;
52740;SDS011;38634;52.138;9.912;2022-08-25T18:22:33;8.50;;;3.85;;
52740;SDS011;38634;52.138;9.912;2022-08-25T18:25:18;5.57;;;3.20;;
52740;SDS011;38634;52.138;9.912;2022-08-25T18:28:03;5.15;;;3.00;;
52740;SDS011;38634;52.138;9.912;2022-08-25T18:30:48;5.65;;;2.70;;
52740;SDS011;38634;52.138;9.912;2022-08-25T18:33:33;4.93;;;3.38;;
52740;SDS011;38634;52.138;9.912;2022-08-25T18:36:17;5.72;;;2.90;;
52740;SDS011;38634;52.138;9.912;2022-08-25T18:39:05;4.68;;;2.95;;
52740;SDS011;38634;52.138;9.912;2022-08-25T18:42:09;4.95;;;2.78;;
52740;SDS011;38634;52.138;9.912;2022-08-25T18:44:54;4.90;;;3.17;;
52740;SDS011;38634;52.138;9.912;2022-08-25T18:47:39;5.47;;;3.47;;
52740;SDS011;38634;52.138;9.912;2022-08-25T18:50:24;10.25;;;5.00;;
52740;SDS011;38634;52.138;9.912;2022-08-25T18:53:11;6.97;;;3.70;;
52740;SDS011;38634;52.138;9.912;2022-08-25T18:55:57;6.70;;;4.00;;
52740;SDS011;38634;52.138;9.912;2022-08-25T18:58:42;5.93;;;3.60;;
52740;SDS011;38634;52.138;9.912;2022-08-25T19:01:26;5.80;;;3.25;;
52740;SDS011;38634;52.138;9.912;2022-08-25T19:04:11;4.97;;;2.85;;
52740;SDS011;38634;52.138;9.912;2022-08-25T19:06:58;4.25;;;2.60;;
52740;SDS011;38634;52.138;9.912;2022-08-25T19:09:43;6.65;;;3.30;;
52740;SDS011;38634;52.138;9.912;2022-08-25T19:12:28;5.82;;;3.35;;
52740;SDS011;38634;52.138;9.912;2022-08-25T19:15:13;7.00;;;3.45;;
52740;SDS011;38634;52.138;9.912;2022-08-25T19:17:59;5.05;;;2.78;;
52740;SDS011;38634;52.138;9.912;2022-08-25T19:20:43;5.18;;;2.95;;
52740;SDS011;38634;52.138;9.912;2022-08-25T19:23:28;5.45;;;2.72;;
52740;SDS011;38634;52.138;9.912;2022-08-25T19:26:13;5.60;;;3.33;;
52740;SDS011;38634;52.138;9.912;2022-08-25T19:28:58;6.10;;;3.33;;
52740;SDS011;38634;52.138;9.912;2022-08-25T19:31:44;5.65;;;3.05;;
52740;SDS011;38634;52.138;9.912;2022-08-25T19:34:32;4.05;;;2.83;;
52740;SDS011;38634;52.138;9.912;2022-08-25T19:37:23;4.90;;;2.75;;
52740;SDS011;38634;52.138;9.912;2022-08-25T19:40:10;7.13;;;2.58;;
52740;SDS011;38634;52.138;9.912;2022-08-25T19:42:55;7.75;;;2.92;;
52740;SDS011;38634;52.138;9.912;2022-08-25T19:45:40;9.20;;;3.60;;
52740;SDS011;38634;52.138;9.912;2022-08-25T19:48:26;3.50;;;2.55;;
52740;SDS011;38634;52.138;9.912;2022-08-25T19:51:11;3.22;;;2.45;;
52740;SDS011;38634;52.138;9.912;2022-08-25T19:53:58;5.93;;;3.47;;
52740;SDS011;38634;52.138;9.912;2022-08-25T19:56:43;6.10;;;2.92;;
52740;SDS011;38634;52.138;9.912;2022-08-25T19:59:29;6.22;;;3.22;;
52740;SDS011;38634;52.138;9.912;2022-08-25T20:02:18;5.43;;;3.00;;
52740;SDS011;38634;52.138;9.912;2022-08-25T20:05:07;5.10;;;2.60;;
52740;SDS011;38634;52.138;9.912;2022-08-25T20:07:52;5.45;;;3.17;;
52740;SDS011;38634;52.138;9.912;2022-08-25T20:10:38;4.38;;;2.33;;
52740;SDS011;38634;52.138;9.912;2022-08-25T20:13:23;4.65;;;2.70;;
52740;SDS011;38634;52.138;9.912;2022-08-25T20:16:08;5.15;;;2.85;;
52740;SDS011;38634;52.138;9.912;2022-08-25T20:18:52;5.80;;;3.03;;
52740;SDS011;38634;52.138;9.912;2022-08-25T20:21:37;7.00;;;3.90;;
52740;SDS011;38634;52.138;9.912;2022-08-25T20:24:24;4.45;;;2.50;;
52740;SDS011;38634;52.138;9.912;2022-08-25T20:27:33;3.92;;;3.10;;
52740;SDS011;38634;52.138;9.912;2022-08-25T20:30:23;5.57;;;2.95;;
52740;SDS011;38634;52.138;9.912;2022-08-25T20:33:11;5.57;;;3.17;;
52740;SDS011;38634;52.138;9.912;2022-08-25T20:35:56;4.70;;;2.55;;
52740;SDS011;38634;52.138;9.912;2022-08-25T20:38:41;5.97;;;3.00;;
52740;SDS011;38634;52.138;9.912;2022-08-25T20:41:27;5.65;;;3.10;;
52740;SDS011;38634;52.138;9.912;2022-08-25T20:44:12;4.35;;;2.65;;
52740;SDS011;38634;52.138;9.912;2022-08-25T20:46:56;10.95;;;3.05;;
52740;SDS011;38634;52.138;9.912;2022-08-25T20:49:41;5.65;;;2.75;;
52740;SDS011;38634;52.138;9.912;2022-08-25T20:52:30;5.30;;;2.90;;
52740;SDS011;38634;52.138;9.912;2022-08-25T20:55:14;5.35;;;2.72;;
52740;SDS011;38634;52.138;9.912;2022-08-25T20:57:59;5.82;;;3.00;;
52740;SDS011;38634;52.138;9.912;2022-08-25T21:00:43;3.78;;;2.08;;
52740;SDS011;38634;52.138;9.912;2022-08-25T21:03:28;7.30;;;3.28;;
52740;SDS011;38634;52.138;9.912;2022-08-25T21:06:14;6.32;;;3.22;;
52740;SDS011;38634;52.138;9.912;2022-08-25T21:08:59;4.93;;;2.60;;
52740;SDS011;38634;52.138;9.912;2022-08-25T21:11:45;5.45;;;2.95;;
52740;SDS011;38634;52.138;9.912;2022-08-25T21:14:30;5.72;;;3.00;;
52740;SDS011;38634;52.138;9.912;2022-08-25T21:17:15;6.30;;;3.17;;
52740;SDS011;38634;52.138;9.912;2022-08-25T21:20:00;4.93;;;2.88;;
52740;SDS011;38634;52.138;9.912;2022-08-25T21:22:46;11.98;;;3.88;;
52740;SDS011;38634;52.138;9.912;2022-08-25T21:25:36;8.15;;;4.25;;
52740;SDS011;38634;52.138;9.912;2022-08-25T21:28:23;5.60;;;2.92;;
52740;SDS011;38634;52.138;9.912;2022-08-25T21:31:08;4.95;;;2.42;;
52740;SDS011;38634;52.138;9.912;2022-08-25T21:33:54;5.90;;;3.25;;
52740;SDS011;38634;52.138;9.912;2022-08-25T21:36:40;5.93;;;2.83;;
52740;SDS011;38634;52.138;9.912;2022-08-25T21:39:25;5.43;;;3.00;;
52740;SDS011;38634;52.138;9.912;2022-08-25T21:42:10;4.85;;;2.95;;
52740;SDS011;38634;52.138;9.912;2022-08-25T21:44:55;4.60;;;2.55;;
52740;SDS011;38634;52.138;9.912;2022-08-25T21:47:43;5.07;;;2.65;;
52740;SDS011;38634;52.138;9.912;2022-08-25T21:50:29;4.60;;;2.30;;
52740;SDS011;38634;52.138;9.912;2022-08-25T21:53:16;5.70;;;3.42;;
52740;SDS011;38634;52.138;9.912;2022-08-25T21:56:04;3.95;;;2.70;;
52740;SDS011;38634;52.138;9.912;2022-08-25T21:58:51;6.93;;;3.05;;
52740;SDS011;38634;52.138;9.912;2022-08-25T22:01:36;5.25;;;2.70;;
52740;SDS011;38634;52.138;9.912;2022-08-25T22:04:23;4.45;;;2.90;;
52740;SDS011;38634;52.138;9.912;2022-08-25T22:07:08;4.47;;;2.13;;
52740;SDS011;38634;52.138;9.912;2022-08-25T22:09:53;6.20;;;2.60;;
52740;SDS011;38634;52.138;9.912;2022-08-25T22:12:39;6.95;;;2.95;;
52740;SDS011;38634;52.138;9.912;2022-08-25T22:15:24;7.07;;;2.60;;
52740;SDS011;38634;52.138;9.912;2022-08-25T22:18:10;6.03;;;2.50;;
52740;SDS011;38634;52.138;9.912;2022-08-25T22:20:55;7.57;;;3.00;;
52740;SDS011;38634;52.138;9.912;2022-08-25T22:23:43;10.32;;;3.47;;
52740;SDS011;38634;52.138;9.912;2022-08-25T22:26:28;7.43;;;2.50;;
52740;SDS011;38634;52.138;9.912;2022-08-25T22:29:15;8.85;;;3.28;;
52740;SDS011;38634;52.138;9.912;2022-08-25T22:32:01;9.05;;;3.20;;
52740;SDS011;38634;52.138;9.912;2022-08-25T22:34:47;8.40;;;3.00;;
52740;SDS011;38634;52.138;9.912;2022-08-25T22:37:31;8.40;;;3.40;;
52740;SDS011;38634;52.138;9.912;2022-08-25T22:40:16;5.03;;;1.88;;
52740;SDS011;38634;52.138;9.912;2022-08-25T22:43:01;8.20;;;2.72;;
52740;SDS011;38634;52.138;9.912;2022-08-25T22:45:47;9.85;;;3.03;;
52740;SDS011;38634;52.138;9.912;2022-08-25T22:48:32;9.93;;;3.38;;
52740;SDS011;38634;52.138;9.912;2022-08-25T22:51:19;11.07;;;3.65;;
52740;SDS011;38634;52.138;9.912;2022-08-25T22:54:06;10.88;;;3.22;;
52740;SDS011;38634;52.138;9.912;2022-08-25T22:56:50;11.52;;;3.30;;
52740;SDS011;38634;52.138;9.912;2022-08-25T22:59:36;9.02;;;3.63;;
52740;SDS011;38634;52.138;9.912;2022-08-25T23:02:21;9.68;;;3.22;;
52740;SDS011;38634;52.138;9.912;2022-08-25T23:05:06;22.65;;;3.92;;
52740;SDS011;38634;52.138;9.912;2022-08-25T23:07:51;16.50;;;3.08;;
52740;SDS011;38634;52.138;9.912;2022-08-25T23:10:36;14.77;;;3.17;;
52740;SDS011;38634;52.138;9.912;2022-08-25T23:13:21;19.35;;;4.20;;
52740;SDS011;38634;52.138;9.912;2022-08-25T23:16:08;20.08;;;3.72;;
52740;SDS011;38634;52.138;9.912;2022-08-25T23:18:54;19.27;;;4.20;;
52740;SDS011;38634;52.138;9.912;2022-08-25T23:21:38;6.93;;;2.92;;
52740;SDS011;38634;52.138;9.912;2022-08-25T23:24:43;9.95;;;3.05;;
52740;SDS011;38634;52.138;9.912;2022-08-25T23:27:30;5.18;;;2.30;;
52740;SDS011;38634;52.138;9.912;2022-08-25T23:30:14;7.75;;;2.78;;
52740;SDS011;38634;52.138;9.912;2022-08-25T23:32:59;4.72;;;2.10;;
52740;SDS011;38634;52.138;9.912;2022-08-25T23:35:44;5.35;;;2.60;;
52740;SDS011;38634;52.138;9.912;2022-08-25T23:38:28;5.03;;;2.58;;
52740;SDS011;38634;52.138;9.912;2022-08-25T23:41:16;5.82;;;2.45;;
52740;SDS011;38634;52.138;9.912;2022-08-25T23:44:04;7.45;;;4.20;;
52740;SDS011;38634;52.138;9.912;2022-08-25T23:46:49;5.35;;;2.53;;
52740;SDS011;38634;52.138;9.912;2022-08-25T23:49:34;4.10;;;2.50;;
52740;SDS011;38634;52.138;9.912;2022-08-25T23:52:18;5.05;;;2.08;;
52740;SDS011;38634;52.138;9.912;2022-08-25T23:55:03;4.78;;;2.40;;
52740;SDS011;38634;52.138;9.912;2022-08-25T23:57:49;6.60;;;3.08;;
